createdAt,value
2019-04-30T00:00:07.747Z,19.05
2019-04-30T00:01:36.263Z,17.55
2019-04-30T00:02:47.675Z,18.30
2019-04-30T00:04:18.884Z,19.07
2019-04-30T00:05:21.598Z,19.57
2019-04-30T00:06:28.802Z,18.82
2019-04-30T00:07:29.133Z,18.48
2019-04-30T00:08:37.563Z,19.25
2019-04-30T00:09:36.241Z,19.25
2019-04-30T00:10:41.188Z,19.70
2019-04-30T00:11:43.542Z,19.67
2019-04-30T00:12:46.210Z,18.05
2019-04-30T00:13:50.244Z,17.92
2019-04-30T00:14:54.914Z,19.17
2019-04-30T00:16:00.319Z,18.45
2019-04-30T00:17:01.937Z,19.98
2019-04-30T00:18:05.527Z,18.73
2019-04-30T00:19:10.595Z,18.02
2019-04-30T00:20:12.604Z,18.12
2019-04-30T00:21:18.670Z,20.17
2019-04-30T00:22:30.970Z,18.77
2019-04-30T00:23:27.169Z,19.50
2019-04-30T00:24:28.740Z,19.62
2019-04-30T00:25:31.542Z,18.50
2019-04-30T00:26:35.464Z,16.40
2019-04-30T00:27:38.129Z,18.60
2019-04-30T00:28:46.254Z,18.98
2019-04-30T00:29:45.805Z,18.90
2019-04-30T00:30:48.489Z,17.92
2019-04-30T00:31:51.136Z,18.85
2019-04-30T00:32:55.592Z,18.30
2019-04-30T00:34:01.381Z,18.05
2019-04-30T00:35:02.817Z,18.35
2019-04-30T00:36:05.661Z,19.07
2019-04-30T00:37:13.982Z,18.67
2019-04-30T00:38:12.817Z,19.55
2019-04-30T00:39:16.753Z,17.77
2019-04-30T00:40:21.781Z,18.57
2019-04-30T00:41:25.543Z,18.23
2019-04-30T00:42:28.889Z,18.12
2019-04-30T00:43:31.796Z,19.15
2019-04-30T00:44:35.643Z,19.62
2019-04-30T00:45:40.072Z,19.92
2019-04-30T00:46:42.789Z,20.05
2019-04-30T00:47:47.936Z,20.15
2019-04-30T00:48:49.916Z,19.92
2019-04-30T00:49:57.526Z,19.17
2019-04-30T00:50:57.090Z,20.80
2019-04-30T00:51:59.744Z,19.87
2019-04-30T00:53:05.873Z,20.02
2019-04-30T00:54:06.850Z,21.12
2019-04-30T00:55:09.537Z,20.37
2019-04-30T00:56:12.189Z,21.75
2019-04-30T00:57:15.200Z,21.45
2019-04-30T00:58:24.974Z,21.05
2019-04-30T00:59:22.557Z,21.75
2019-04-30T01:00:29.517Z,21.00
2019-04-30T01:01:49.316Z,20.30
2019-04-30T01:03:00.752Z,20.57
2019-04-30T01:04:11.849Z,21.25
2019-04-30T01:05:16.862Z,22.15
2019-04-30T01:06:24.717Z,21.57
2019-04-30T01:07:24.279Z,23.32
2019-04-30T01:08:28.529Z,22.25
2019-04-30T01:09:31.365Z,23.20
2019-04-30T01:10:34.769Z,22.85
2019-04-30T01:11:39.755Z,23.57
2019-04-30T01:12:47.018Z,23.55
2019-04-30T01:13:51.011Z,23.25
2019-04-30T01:14:50.874Z,22.87
2019-04-30T01:15:53.534Z,23.10
2019-04-30T01:16:56.196Z,22.27
2019-04-30T01:17:59.382Z,20.95
2019-04-30T01:19:05.814Z,22.90
2019-04-30T01:20:09.889Z,23.25
2019-04-30T01:21:12.576Z,23.18
2019-04-30T01:22:21.110Z,23.55
2019-04-30T01:23:20.004Z,22.93
2019-04-30T01:24:23.375Z,23.42
2019-04-30T01:25:28.831Z,23.25
2019-04-30T01:26:32.010Z,23.27
2019-04-30T01:27:39.541Z,22.37
2019-04-30T01:28:40.013Z,23.38
2019-04-30T01:29:44.428Z,22.55
2019-04-30T01:30:49.426Z,24.18
2019-04-30T01:31:51.970Z,23.07
2019-04-30T01:32:56.577Z,24.40
2019-04-30T01:33:59.117Z,22.07
2019-04-30T01:35:01.789Z,23.47
2019-04-30T01:36:09.556Z,23.95
2019-04-30T01:37:08.925Z,21.75
2019-04-30T01:38:12.802Z,21.93
2019-04-30T01:39:15.741Z,22.45
2019-04-30T01:40:18.974Z,22.25
2019-04-30T01:41:27.370Z,22.32
2019-04-30T01:42:26.288Z,24.10
2019-04-30T01:43:33.306Z,21.93
2019-04-30T01:44:33.433Z,23.38
2019-04-30T01:45:36.188Z,23.52
2019-04-30T01:46:39.059Z,22.77
2019-04-30T01:47:41.777Z,23.57
2019-04-30T01:48:48.631Z,24.98
2019-04-30T01:49:49.595Z,23.12
2019-04-30T01:50:52.313Z,23.38
2019-04-30T01:51:57.316Z,22.95
2019-04-30T01:52:59.338Z,21.80
2019-04-30T01:54:02.017Z,21.73
2019-04-30T01:55:04.724Z,22.80
2019-04-30T01:56:28.828Z,23.42
2019-04-30T01:57:43.843Z,22.82
2019-04-30T01:58:50.357Z,23.95
2019-04-30T02:00:21.245Z,23.80
2019-04-30T02:01:25.053Z,25.80
2019-04-30T02:02:29.407Z,23.83
2019-04-30T02:03:32.067Z,23.05
2019-04-30T02:04:34.712Z,24.63
2019-04-30T02:05:38.613Z,23.55
2019-04-30T02:06:41.239Z,23.83
2019-04-30T02:07:46.010Z,22.07
2019-04-30T02:08:49.392Z,23.70
2019-04-30T02:09:52.122Z,24.20
2019-04-30T02:10:54.781Z,23.20
2019-04-30T02:11:57.430Z,24.70
2019-04-30T02:13:00.088Z,23.73
2019-04-30T02:14:05.866Z,23.95
2019-04-30T02:15:09.512Z,20.80
2019-04-30T02:16:12.196Z,23.62
2019-04-30T02:17:14.829Z,24.80
2019-04-30T02:18:19.384Z,23.92
2019-04-30T02:19:21.949Z,22.93
2019-04-30T02:20:24.982Z,23.52
2019-04-30T02:21:29.893Z,23.30
2019-04-30T02:22:32.128Z,22.65
2019-04-30T02:23:34.781Z,21.97
2019-04-30T02:24:38.696Z,23.62
2019-04-30T02:25:41.305Z,22.93
2019-04-30T02:26:44.010Z,23.90
2019-04-30T02:27:46.636Z,23.18
2019-04-30T02:28:49.596Z,23.92
2019-04-30T02:29:52.259Z,23.77
2019-04-30T02:30:54.905Z,22.22
2019-04-30T02:32:00.390Z,24.18
2019-04-30T02:33:02.025Z,25.05
2019-04-30T02:34:22.229Z,24.30
2019-04-30T02:35:41.650Z,24.27
2019-04-30T02:36:59.890Z,24.47
2019-04-30T02:38:11.148Z,24.10
2019-04-30T02:39:14.185Z,23.87
2019-04-30T02:40:16.834Z,24.25
2019-04-30T02:41:20.932Z,23.30
2019-04-30T02:42:24.018Z,23.62
2019-04-30T02:43:30.086Z,23.92
2019-04-30T02:44:34.657Z,23.15
2019-04-30T02:45:40.137Z,23.12
2019-04-30T02:46:44.361Z,22.32
2019-04-30T02:47:49.977Z,23.52
2019-04-30T02:48:54.006Z,23.02
2019-04-30T02:50:11.629Z,25.15
2019-04-30T02:51:05.124Z,24.10
2019-04-30T02:52:09.218Z,24.32
2019-04-30T02:53:50.480Z,23.85
2019-04-30T02:54:56.151Z,24.15
2019-04-30T02:55:59.527Z,23.05
2019-04-30T02:57:11.778Z,23.20
2019-04-30T02:58:14.027Z,22.52
2019-04-30T02:59:16.652Z,22.87
2019-04-30T03:00:20.603Z,22.58
2019-04-30T03:01:23.514Z,22.10
2019-04-30T03:02:29.014Z,21.23
2019-04-30T03:03:31.536Z,21.75
2019-04-30T03:04:34.178Z,20.70
2019-04-30T03:05:39.109Z,19.27
2019-04-30T03:06:41.301Z,19.75
2019-04-30T03:07:43.949Z,20.95
2019-04-30T03:08:46.589Z,20.85
2019-04-30T03:09:49.944Z,20.12
2019-04-30T03:10:52.930Z,20.10
2019-04-30T03:11:55.727Z,19.40
2019-04-30T03:12:59.987Z,21.07
2019-04-30T03:14:02.942Z,19.23
2019-04-30T03:15:10.090Z,21.77
2019-04-30T03:16:14.739Z,21.20
2019-04-30T03:17:54.714Z,22.20
2019-04-30T03:19:09.907Z,22.32
2019-04-30T03:20:34.632Z,21.82
2019-04-30T03:21:46.659Z,23.07
2019-04-30T03:22:51.193Z,22.73
2019-04-30T03:23:53.813Z,21.68
2019-04-30T03:24:56.454Z,20.72
2019-04-30T03:25:59.747Z,21.10
2019-04-30T03:27:02.453Z,21.55
2019-04-30T03:28:05.129Z,21.77
2019-04-30T03:29:10.718Z,21.07
2019-04-30T03:30:12.583Z,22.22
2019-04-30T03:31:15.187Z,22.80
2019-04-30T03:32:22.513Z,21.52
2019-04-30T03:33:23.222Z,22.15
2019-04-30T03:34:26.503Z,22.00
2019-04-30T03:35:32.361Z,21.97
2019-04-30T03:36:34.929Z,21.37
2019-04-30T03:37:39.629Z,22.17
2019-04-30T03:38:42.809Z,22.05
2019-04-30T03:39:45.502Z,21.95
2019-04-30T03:40:50.247Z,21.97
2019-04-30T03:41:52.593Z,21.57
2019-04-30T03:42:55.289Z,20.62
2019-04-30T03:44:13.852Z,21.77
2019-04-30T03:45:02.809Z,21.73
2019-04-30T03:46:05.508Z,21.25
2019-04-30T03:47:11.059Z,21.77
2019-04-30T03:48:12.634Z,22.37
2019-04-30T03:49:15.344Z,20.75
2019-04-30T03:50:19.856Z,20.60
2019-04-30T03:51:22.456Z,21.33
2019-04-30T03:52:25.095Z,22.07
2019-04-30T03:53:29.797Z,19.90
2019-04-30T03:54:32.258Z,20.37
2019-04-30T03:55:34.931Z,21.25
2019-04-30T03:56:39.574Z,20.62
2019-04-30T03:57:42.046Z,21.25
2019-04-30T03:58:44.706Z,20.55
2019-04-30T03:59:49.778Z,20.32
2019-04-30T04:01:16.904Z,19.50
2019-04-30T04:02:30.180Z,20.02
2019-04-30T04:03:35.106Z,20.82
2019-04-30T04:04:44.760Z,20.68
2019-04-30T04:05:55.482Z,19.90
2019-04-30T04:07:16.084Z,20.02
2019-04-30T04:08:29.350Z,19.40
2019-04-30T04:09:39.971Z,19.50
2019-04-30T04:10:50.249Z,20.32
2019-04-30T04:11:52.936Z,18.87
2019-04-30T04:12:55.701Z,19.80
2019-04-30T04:13:59.705Z,20.45
2019-04-30T04:15:03.996Z,18.75
2019-04-30T04:16:09.508Z,19.65
2019-04-30T04:17:11.368Z,19.87
2019-04-30T04:18:14.061Z,18.57
2019-04-30T04:19:19.479Z,20.20
2019-04-30T04:20:21.279Z,19.48
2019-04-30T04:21:23.926Z,18.90
2019-04-30T04:22:26.915Z,19.35
2019-04-30T04:23:32.884Z,18.55
2019-04-30T04:24:34.033Z,19.52
2019-04-30T04:25:39.706Z,19.80
2019-04-30T04:26:43.795Z,19.15
2019-04-30T04:27:45.630Z,19.07
2019-04-30T04:28:49.601Z,18.32
2019-04-30T04:29:52.499Z,19.90
2019-04-30T04:30:55.153Z,19.60
2019-04-30T04:32:00.729Z,19.77
2019-04-30T04:33:02.267Z,19.70
2019-04-30T04:34:04.961Z,18.37
2019-04-30T04:35:09.904Z,17.32
2019-04-30T04:36:12.171Z,18.85
2019-04-30T04:37:14.855Z,17.37
2019-04-30T04:38:20.100Z,18.17
2019-04-30T04:39:22.013Z,18.67
2019-04-30T04:40:24.698Z,18.00
2019-04-30T04:41:29.426Z,16.60
2019-04-30T04:42:33.075Z,17.62
2019-04-30T04:43:35.910Z,17.85
2019-04-30T04:44:39.945Z,19.20
2019-04-30T04:45:43.842Z,17.90
2019-04-30T04:46:46.570Z,17.62
2019-04-30T04:47:50.370Z,17.12
2019-04-30T04:48:53.283Z,18.42
2019-04-30T04:49:55.972Z,17.80
2019-04-30T04:51:00.036Z,17.70
2019-04-30T04:52:02.998Z,18.32
2019-04-30T04:53:07.925Z,17.05
2019-04-30T04:54:10.505Z,17.42
2019-04-30T04:55:13.447Z,15.93
2019-04-30T04:56:16.129Z,16.75
2019-04-30T04:57:22.275Z,16.67
2019-04-30T04:58:23.216Z,17.60
2019-04-30T04:59:25.863Z,17.57
2019-04-30T05:00:29.375Z,17.07
2019-04-30T05:01:32.226Z,17.62
2019-04-30T05:03:06.248Z,17.17
2019-04-30T05:04:11.688Z,17.65
2019-04-30T05:05:13.417Z,17.20
2019-04-30T05:06:16.096Z,18.30
2019-04-30T05:07:19.634Z,16.95
2019-04-30T05:08:22.302Z,17.42
2019-04-30T05:09:24.984Z,17.65
2019-04-30T05:10:29.166Z,16.90
2019-04-30T05:11:32.170Z,18.30
2019-04-30T05:12:37.293Z,16.45
2019-04-30T05:13:39.253Z,17.10
2019-04-30T05:14:41.918Z,16.60
2019-04-30T05:15:44.582Z,17.15
2019-04-30T05:16:48.831Z,16.85
2019-04-30T05:17:51.605Z,16.40
2019-04-30T05:18:54.381Z,18.15
2019-04-30T05:19:58.672Z,17.27
2019-04-30T05:21:01.497Z,16.85
2019-04-30T05:22:04.189Z,16.85
2019-04-30T05:23:06.980Z,17.25
2019-04-30T05:24:09.688Z,16.07
2019-04-30T05:25:12.421Z,15.75
2019-04-30T05:26:15.101Z,14.35
2019-04-30T05:27:19.726Z,16.23
2019-04-30T05:28:22.414Z,15.75
2019-04-30T05:29:25.167Z,16.37
2019-04-30T05:30:29.382Z,15.70
2019-04-30T05:31:32.192Z,15.85
2019-04-30T05:32:34.856Z,16.52
2019-04-30T05:33:39.045Z,16.05
2019-04-30T05:34:41.780Z,15.18
2019-04-30T05:35:44.544Z,17.12
2019-04-30T05:36:48.848Z,17.50
2019-04-30T05:37:51.973Z,15.95
2019-04-30T05:38:54.621Z,15.53
2019-04-30T05:39:58.799Z,12.63
2019-04-30T05:41:01.834Z,15.08
2019-04-30T05:42:04.493Z,14.40
2019-04-30T05:43:11.304Z,14.75
2019-04-30T05:44:14.139Z,15.48
2019-04-30T05:45:19.062Z,16.97
2019-04-30T05:46:21.498Z,16.00
2019-04-30T05:47:24.170Z,16.17
2019-04-30T05:48:28.635Z,16.05
2019-04-30T05:49:31.301Z,15.48
2019-04-30T05:50:33.956Z,14.80
2019-04-30T05:51:38.309Z,14.83
2019-04-30T05:52:41.143Z,15.78
2019-04-30T05:53:43.846Z,15.80
2019-04-30T05:54:48.556Z,15.10
2019-04-30T05:55:51.049Z,15.50
2019-04-30T05:56:56.535Z,16.10
2019-04-30T05:58:01.473Z,14.28
2019-04-30T05:59:03.835Z,16.32
2019-04-30T06:00:10.168Z,15.28
2019-04-30T06:01:15.898Z,15.83
2019-04-30T06:02:19.374Z,15.05
2019-04-30T06:03:28.149Z,15.30
2019-04-30T06:04:26.769Z,15.93
2019-04-30T06:05:29.444Z,14.80
2019-04-30T06:06:33.653Z,15.20
2019-04-30T06:07:36.337Z,16.27
2019-04-30T06:08:49.122Z,14.93
2019-04-30T06:10:03.512Z,14.40
2019-04-30T06:11:15.348Z,15.50
2019-04-30T06:12:23.473Z,15.38
2019-04-30T06:13:32.020Z,14.98
2019-04-30T06:14:49.068Z,15.03
2019-04-30T06:16:15.392Z,15.55
2019-04-30T06:17:19.748Z,16.12
2019-04-30T06:18:22.541Z,13.70
2019-04-30T06:19:25.169Z,15.65
2019-04-30T06:20:28.813Z,16.12
2019-04-30T06:21:31.593Z,16.93
2019-04-30T06:22:34.248Z,15.03
2019-04-30T06:23:36.881Z,15.93
2019-04-30T06:24:39.796Z,15.43
2019-04-30T06:25:56.373Z,14.78
2019-04-30T06:26:47.058Z,14.68
2019-04-30T06:27:50.153Z,15.90
2019-04-30T06:28:52.928Z,15.00
2019-04-30T06:29:55.797Z,15.00
2019-04-30T06:30:59.110Z,15.80
2019-04-30T06:32:05.182Z,14.50
2019-04-30T06:33:09.243Z,15.60
2019-04-30T06:34:12.078Z,14.68
2019-04-30T06:35:14.963Z,14.35
2019-04-30T06:36:19.052Z,14.55
2019-04-30T06:37:22.189Z,15.23
2019-04-30T06:38:25.045Z,14.35
2019-04-30T06:39:28.836Z,14.47
2019-04-30T06:40:31.490Z,13.80
2019-04-30T06:41:34.165Z,14.00
2019-04-30T06:42:39.216Z,14.58
2019-04-30T06:43:41.838Z,15.10
2019-04-30T06:44:44.513Z,14.95
2019-04-30T06:45:48.836Z,15.05
2019-04-30T06:46:52.314Z,15.10
2019-04-30T06:47:55.668Z,15.50
2019-04-30T06:48:59.488Z,15.70
2019-04-30T06:50:02.279Z,14.53
2019-04-30T06:51:04.906Z,14.47
2019-04-30T06:52:19.536Z,14.50
2019-04-30T06:53:12.157Z,15.55
2019-04-30T06:54:14.800Z,15.45
2019-04-30T06:55:19.305Z,14.98
2019-04-30T06:56:21.962Z,15.28
2019-04-30T06:57:24.605Z,15.48
2019-04-30T06:58:28.994Z,15.25
2019-04-30T06:59:31.731Z,15.28
2019-04-30T07:00:35.661Z,14.55
2019-04-30T07:01:38.881Z,14.20
2019-04-30T07:02:41.513Z,14.35
2019-04-30T07:03:44.248Z,15.85
2019-04-30T07:04:48.612Z,15.05
2019-04-30T07:05:51.479Z,15.60
2019-04-30T07:06:54.130Z,16.15
2019-04-30T07:08:14.521Z,13.65
2019-04-30T07:09:26.845Z,14.45
2019-04-30T07:10:31.872Z,16.35
2019-04-30T07:11:49.393Z,14.63
2019-04-30T07:13:18.760Z,13.78
2019-04-30T07:14:21.607Z,13.95
2019-04-30T07:15:24.352Z,15.50
2019-04-30T07:16:27.028Z,14.35
2019-04-30T07:17:29.700Z,15.48
2019-04-30T07:18:32.492Z,14.25
2019-04-30T07:19:51.129Z,14.85
2019-04-30T07:20:39.632Z,14.10
2019-04-30T07:21:45.221Z,13.65
2019-04-30T07:22:52.312Z,14.45
2019-04-30T07:23:51.721Z,14.15
2019-04-30T07:24:54.442Z,14.75
2019-04-30T07:25:58.968Z,16.60
2019-04-30T07:27:02.822Z,14.53
2019-04-30T07:28:05.597Z,14.90
2019-04-30T07:29:09.653Z,13.75
2019-04-30T07:30:12.609Z,14.30
2019-04-30T07:31:15.376Z,14.43
2019-04-30T07:32:19.717Z,14.20
2019-04-30T07:33:22.454Z,14.15
2019-04-30T07:34:25.102Z,13.83
2019-04-30T07:35:29.253Z,14.23
2019-04-30T07:36:45.768Z,14.60
2019-04-30T07:37:38.958Z,15.00
2019-04-30T07:38:51.782Z,13.15
2019-04-30T07:39:45.430Z,14.45
2019-04-30T07:40:49.301Z,13.43
2019-04-30T07:41:52.057Z,13.95
2019-04-30T07:42:54.742Z,12.98
2019-04-30T07:43:59.249Z,12.50
2019-04-30T07:45:01.842Z,13.22
2019-04-30T07:46:04.587Z,13.30
2019-04-30T07:47:09.514Z,13.78
2019-04-30T07:48:11.766Z,14.65
2019-04-30T07:49:14.452Z,14.03
2019-04-30T07:50:17.427Z,13.38
2019-04-30T07:51:22.394Z,13.13
2019-04-30T07:52:26.177Z,13.80
2019-04-30T07:53:30.940Z,14.80
2019-04-30T07:54:33.646Z,13.88
2019-04-30T07:55:36.313Z,14.50
2019-04-30T07:56:41.719Z,13.90
2019-04-30T07:57:43.460Z,14.85
2019-04-30T07:58:46.116Z,14.10
2019-04-30T07:59:49.958Z,15.35
2019-04-30T08:00:56.320Z,15.15
2019-04-30T08:02:07.567Z,12.75
2019-04-30T08:03:10.746Z,12.30
2019-04-30T08:04:30.969Z,12.43
2019-04-30T08:05:40.162Z,12.53
2019-04-30T08:06:42.464Z,11.95
2019-04-30T08:07:45.143Z,12.85
2019-04-30T08:08:50.534Z,12.55
2019-04-30T08:09:52.593Z,13.65
2019-04-30T08:10:55.237Z,12.60
2019-04-30T08:11:59.009Z,13.53
2019-04-30T08:13:10.075Z,12.55
2019-04-30T08:14:06.786Z,14.28
2019-04-30T08:15:09.918Z,12.53
2019-04-30T08:16:12.602Z,12.47
2019-04-30T08:17:15.228Z,12.15
2019-04-30T08:18:18.472Z,12.35
2019-04-30T08:19:21.288Z,11.97
2019-04-30T08:20:23.950Z,12.37
2019-04-30T08:21:28.652Z,11.63
2019-04-30T08:22:31.037Z,11.93
2019-04-30T08:23:37.052Z,11.83
2019-04-30T08:24:39.124Z,16.37
2019-04-30T08:25:41.817Z,11.95
2019-04-30T08:26:44.486Z,12.82
2019-04-30T08:27:49.108Z,13.13
2019-04-30T08:28:51.688Z,10.98
2019-04-30T08:29:54.372Z,12.78
2019-04-30T08:30:58.826Z,11.35
2019-04-30T08:32:01.516Z,12.03
2019-04-30T08:33:04.370Z,11.40
2019-04-30T08:34:10.647Z,12.20
2019-04-30T08:35:11.507Z,12.45
2019-04-30T08:36:14.201Z,11.55
2019-04-30T08:37:18.177Z,12.00
2019-04-30T08:38:21.388Z,11.65
2019-04-30T08:39:24.036Z,11.43
2019-04-30T08:40:26.770Z,11.33
2019-04-30T08:41:29.499Z,11.03
2019-04-30T08:42:34.235Z,10.93
2019-04-30T08:43:36.677Z,11.60
2019-04-30T08:44:39.687Z,12.40
2019-04-30T08:45:42.377Z,11.53
2019-04-30T08:46:45.064Z,11.88
2019-04-30T08:47:49.356Z,12.78
2019-04-30T08:48:53.773Z,11.55
2019-04-30T08:49:56.558Z,12.47
2019-04-30T08:50:59.632Z,12.45
2019-04-30T08:52:02.319Z,11.75
2019-04-30T08:53:04.993Z,11.03
2019-04-30T08:54:09.487Z,12.82
2019-04-30T08:55:16.991Z,12.55
2019-04-30T08:56:21.694Z,11.95
2019-04-30T08:57:23.142Z,10.90
2019-04-30T08:58:25.829Z,10.55
2019-04-30T08:59:29.448Z,11.70
2019-04-30T09:00:32.220Z,11.30
2019-04-30T09:01:35.216Z,12.33
2019-04-30T09:02:38.927Z,11.68
2019-04-30T09:03:41.631Z,10.88
2019-04-30T09:04:44.313Z,10.50
2019-04-30T09:06:06.046Z,11.50
2019-04-30T09:07:10.254Z,11.73
2019-04-30T09:08:13.201Z,10.43
2019-04-30T09:09:18.794Z,10.58
2019-04-30T09:10:21.541Z,11.73
2019-04-30T09:11:30.211Z,12.43
2019-04-30T09:12:29.942Z,10.05
2019-04-30T09:13:32.737Z,11.55
2019-04-30T09:14:35.369Z,10.20
2019-04-30T09:15:40.017Z,10.93
2019-04-30T09:16:42.530Z,11.57
2019-04-30T09:17:58.117Z,10.20
2019-04-30T09:18:49.682Z,10.05
2019-04-30T09:19:52.382Z,9.28
2019-04-30T09:21:03.533Z,10.58
2019-04-30T09:21:59.470Z,10.10
2019-04-30T09:23:02.137Z,10.72
2019-04-30T09:24:04.810Z,10.70
2019-04-30T09:25:09.281Z,9.55
2019-04-30T09:26:12.052Z,9.93
2019-04-30T09:27:14.714Z,9.85
2019-04-30T09:28:17.359Z,10.82
2019-04-30T09:29:20.427Z,10.18
2019-04-30T09:30:23.113Z,9.25
2019-04-30T09:31:25.753Z,10.43
2019-04-30T09:32:29.121Z,10.25
2019-04-30T09:33:33.053Z,11.08
2019-04-30T09:34:36.385Z,10.60
2019-04-30T09:35:39.547Z,11.00
2019-04-30T09:36:42.263Z,10.72
2019-04-30T09:37:44.922Z,9.90
2019-04-30T09:38:48.577Z,11.03
2019-04-30T09:39:51.389Z,9.20
2019-04-30T09:40:54.093Z,10.30
2019-04-30T09:41:56.740Z,9.85
2019-04-30T09:43:00.416Z,8.80
2019-04-30T09:44:03.573Z,8.90
2019-04-30T09:45:06.242Z,8.70
2019-04-30T09:46:18.975Z,8.43
2019-04-30T09:47:13.425Z,8.40
2019-04-30T09:48:16.121Z,8.70
2019-04-30T09:49:19.450Z,8.78
2019-04-30T09:50:22.243Z,9.28
2019-04-30T09:51:25.401Z,8.78
2019-04-30T09:52:30.331Z,7.80
2019-04-30T09:53:32.836Z,8.35
2019-04-30T09:54:35.448Z,7.95
2019-04-30T09:55:40.297Z,7.40
2019-04-30T09:56:42.605Z,7.70
2019-04-30T09:57:45.294Z,11.78
2019-04-30T09:58:49.259Z,9.98
2019-04-30T09:59:52.069Z,7.28
2019-04-30T10:00:55.147Z,6.60
2019-04-30T10:01:57.818Z,6.67
2019-04-30T10:03:00.816Z,6.92
2019-04-30T10:04:04.145Z,6.97
2019-04-30T10:05:08.014Z,7.03
2019-04-30T10:06:11.090Z,6.85
2019-04-30T10:07:13.782Z,6.95
2019-04-30T10:08:16.425Z,6.83
2019-04-30T10:09:19.426Z,6.65
2019-04-30T10:10:28.812Z,7.83
2019-04-30T10:11:59.789Z,7.45
2019-04-30T10:13:02.493Z,7.05
2019-04-30T10:14:05.199Z,6.83
2019-04-30T10:15:09.360Z,6.97
2019-04-30T10:16:29.616Z,7.17
2019-04-30T10:17:39.766Z,6.33
2019-04-30T10:18:42.519Z,7.53
2019-04-30T10:19:45.178Z,6.60
2019-04-30T10:20:48.161Z,6.85
2019-04-30T10:21:50.888Z,6.97
2019-04-30T10:22:53.549Z,6.72
2019-04-30T10:24:10.254Z,7.05
2019-04-30T10:25:00.831Z,7.80
2019-04-30T10:26:03.597Z,6.20
2019-04-30T10:27:10.803Z,5.70
2019-04-30T10:28:10.769Z,7.47
2019-04-30T10:29:14.140Z,6.67
2019-04-30T10:30:20.372Z,6.78
2019-04-30T10:31:23.026Z,6.55
2019-04-30T10:32:25.951Z,6.55
2019-04-30T10:33:28.919Z,6.65
2019-04-30T10:34:31.641Z,6.40
2019-04-30T10:35:34.326Z,6.62
2019-04-30T10:36:41.163Z,5.50
2019-04-30T10:37:41.861Z,6.15
2019-04-30T10:38:44.537Z,5.58
2019-04-30T10:39:48.991Z,5.78
2019-04-30T10:40:51.778Z,4.67
2019-04-30T10:41:54.438Z,5.35
2019-04-30T10:42:58.680Z,4.67
2019-04-30T10:44:01.390Z,5.15
2019-04-30T10:45:06.565Z,5.65
2019-04-30T10:46:09.817Z,5.60
2019-04-30T10:47:12.578Z,5.20
2019-04-30T10:48:15.477Z,4.90
2019-04-30T10:49:19.245Z,4.78
2019-04-30T10:50:23.642Z,4.72
2019-04-30T10:51:28.840Z,4.40
2019-04-30T10:52:31.505Z,5.20
2019-04-30T10:53:34.154Z,4.03
2019-04-30T10:54:38.786Z,4.50
2019-04-30T10:55:41.631Z,5.25
2019-04-30T10:56:44.321Z,5.33
2019-04-30T10:57:46.928Z,5.15
2019-04-30T10:58:49.587Z,4.80
2019-04-30T10:59:52.274Z,5.67
2019-04-30T11:00:54.985Z,5.80
2019-04-30T11:01:59.207Z,5.95
2019-04-30T11:03:01.902Z,5.60
2019-04-30T11:04:05.965Z,5.50
2019-04-30T11:05:08.640Z,4.78
2019-04-30T11:06:11.329Z,5.65
2019-04-30T11:07:13.952Z,6.20
2019-04-30T11:08:16.661Z,5.70
2019-04-30T11:09:19.294Z,7.17
2019-04-30T11:10:21.955Z,6.62
2019-04-30T11:11:24.845Z,11.50
2019-04-30T11:12:29.082Z,14.13
2019-04-30T11:13:31.894Z,29.25
2019-04-30T11:14:34.625Z,7.55
2019-04-30T11:15:39.270Z,5.20
2019-04-30T11:16:41.885Z,4.70
2019-04-30T11:17:44.701Z,4.70
2019-04-30T11:18:47.747Z,4.95
2019-04-30T11:19:50.643Z,4.92
2019-04-30T11:20:53.662Z,6.15
2019-04-30T11:21:56.618Z,4.90
2019-04-30T11:22:59.425Z,4.53
2019-04-30T11:24:02.240Z,5.30
2019-04-30T11:25:05.311Z,4.90
2019-04-30T11:26:08.796Z,5.60
2019-04-30T11:27:12.784Z,4.92
2019-04-30T11:28:16.334Z,5.03
2019-04-30T11:29:19.419Z,6.28
2019-04-30T11:30:24.356Z,4.97
2019-04-30T11:31:46.497Z,5.12
2019-04-30T11:32:49.436Z,4.25
2019-04-30T11:33:52.367Z,4.87
2019-04-30T11:34:57.937Z,4.50
2019-04-30T11:36:03.107Z,4.62
2019-04-30T11:37:05.032Z,4.85
2019-04-30T11:38:07.770Z,4.50
2019-04-30T11:39:16.086Z,4.17
2019-04-30T11:40:33.952Z,13.30
2019-04-30T11:41:33.309Z,4.53
2019-04-30T11:42:39.037Z,4.10
2019-04-30T11:43:41.726Z,4.28
2019-04-30T11:44:44.421Z,4.25
2019-04-30T11:46:43.504Z,3.83
2019-04-30T11:47:53.306Z,3.83
2019-04-30T11:48:50.668Z,3.85
2019-04-30T11:49:53.432Z,3.25
2019-04-30T11:50:56.125Z,3.80
2019-04-30T11:51:58.804Z,3.80
2019-04-30T11:53:19.519Z,3.47
2019-04-30T11:54:06.109Z,3.90
2019-04-30T11:55:09.756Z,3.60
2019-04-30T11:56:12.449Z,3.75
2019-04-30T11:57:15.103Z,5.10
2019-04-30T11:58:21.603Z,3.90
2019-04-30T11:59:22.259Z,3.77
2019-04-30T12:00:30.868Z,4.45
2019-04-30T12:01:33.533Z,3.77
2019-04-30T12:02:42.556Z,3.33
2019-04-30T12:03:45.210Z,3.60
2019-04-30T12:04:49.493Z,3.35
2019-04-30T12:05:52.211Z,3.30
2019-04-30T12:06:56.685Z,3.27
2019-04-30T12:08:21.440Z,4.67
2019-04-30T12:09:49.402Z,4.12
2019-04-30T12:11:04.949Z,3.40
2019-04-30T12:12:09.168Z,10.20
2019-04-30T12:13:24.582Z,4.03
2019-04-30T12:14:27.267Z,4.28
2019-04-30T12:15:29.954Z,4.08
2019-04-30T12:16:33.783Z,3.80
2019-04-30T12:17:36.390Z,4.42
2019-04-30T12:18:39.099Z,3.62
2019-04-30T12:19:42.066Z,3.72
2019-04-30T12:20:44.785Z,3.98
2019-04-30T12:21:47.466Z,3.80
2019-04-30T12:22:50.146Z,4.20
2019-04-30T12:23:52.805Z,4.50
2019-04-30T12:25:03.332Z,3.80
2019-04-30T12:26:03.216Z,3.50
2019-04-30T12:27:05.989Z,4.40
2019-04-30T12:28:09.505Z,4.65
2019-04-30T12:29:12.472Z,4.00
2019-04-30T12:30:15.617Z,3.87
2019-04-30T12:31:18.745Z,4.12
2019-04-30T12:32:21.469Z,4.00
2019-04-30T12:33:24.104Z,3.92
2019-04-30T12:34:26.766Z,4.22
2019-04-30T12:35:29.422Z,4.03
2019-04-30T12:36:32.065Z,5.53
2019-04-30T12:37:34.788Z,4.80
2019-04-30T12:38:37.432Z,4.20
2019-04-30T12:39:40.114Z,3.50
2019-04-30T12:40:42.951Z,3.98
2019-04-30T12:41:45.589Z,4.22
2019-04-30T12:42:48.691Z,4.30
2019-04-30T12:43:51.458Z,4.37
2019-04-30T12:44:54.108Z,4.53
2019-04-30T12:46:03.476Z,4.00
2019-04-30T12:47:01.203Z,3.40
2019-04-30T12:48:12.005Z,4.17
2019-04-30T12:49:14.766Z,3.25
2019-04-30T12:50:22.917Z,3.30
2019-04-30T12:51:45.870Z,3.30
2019-04-30T12:52:59.722Z,3.40
2019-04-30T12:54:06.570Z,3.67
2019-04-30T12:55:22.649Z,3.92
2019-04-30T12:56:52.020Z,3.62
2019-04-30T12:57:58.834Z,3.87
2019-04-30T12:58:59.601Z,3.40
2019-04-30T13:00:02.293Z,3.42
2019-04-30T13:01:05.058Z,3.50
2019-04-30T13:02:09.117Z,3.72
2019-04-30T13:03:11.865Z,3.98
2019-04-30T13:04:14.513Z,4.20
2019-04-30T13:05:18.879Z,4.20
2019-04-30T13:06:22.022Z,4.47
2019-04-30T13:07:25.735Z,4.67
2019-04-30T13:08:29.304Z,4.47
2019-04-30T13:09:32.759Z,4.78
2019-04-30T13:10:36.409Z,3.90
2019-04-30T13:11:40.580Z,3.98
2019-04-30T13:12:44.319Z,4.12
2019-04-30T13:13:49.978Z,4.15
2019-04-30T13:14:54.678Z,4.72
2019-04-30T13:15:56.345Z,4.30
2019-04-30T13:17:00.752Z,7.87
2019-04-30T13:18:03.524Z,4.60
2019-04-30T13:19:06.229Z,4.42
2019-04-30T13:20:18.592Z,3.50
2019-04-30T13:21:13.674Z,4.10
2019-04-30T13:22:16.318Z,3.72
2019-04-30T13:23:19.071Z,4.17
2019-04-30T13:24:21.791Z,4.00
2019-04-30T13:25:32.389Z,3.92
2019-04-30T13:26:28.965Z,3.40
2019-04-30T13:27:34.121Z,3.40
2019-04-30T13:28:49.302Z,3.70
2019-04-30T13:30:06.197Z,3.67
2019-04-30T13:31:09.282Z,3.50
2019-04-30T13:32:12.030Z,4.10
2019-04-30T13:33:32.546Z,4.00
2019-04-30T13:34:45.818Z,3.35
2019-04-30T13:35:48.954Z,4.33
2019-04-30T13:36:51.577Z,3.90
2019-04-30T13:38:02.098Z,3.90
2019-04-30T13:39:19.785Z,3.55
2019-04-30T13:40:41.910Z,4.15
2019-04-30T13:41:51.033Z,3.90
2019-04-30T13:42:53.836Z,3.95
2019-04-30T13:44:03.858Z,3.50
2019-04-30T13:45:06.996Z,3.70
2019-04-30T13:46:09.645Z,3.70
2019-04-30T13:47:12.304Z,4.20
2019-04-30T13:48:14.983Z,3.70
2019-04-30T13:49:17.658Z,10.28
2019-04-30T13:50:21.549Z,4.12
2019-04-30T13:51:24.283Z,3.47
2019-04-30T13:52:28.861Z,3.25
2019-04-30T13:53:31.474Z,3.47
2019-04-30T13:54:34.151Z,4.20
2019-04-30T13:55:43.723Z,4.15
2019-04-30T13:56:41.318Z,4.70
2019-04-30T13:57:43.981Z,3.67
2019-04-30T13:58:48.589Z,4.47
2019-04-30T13:59:51.242Z,3.87
2019-04-30T14:00:53.897Z,3.50
2019-04-30T14:01:56.569Z,3.77